Fife, Virginia
Current Conditions -  °F | °C
As of 3:55 AM on Saturday 22 Nov 2014 (Local Time) from KLKU Reporting Station
Clear Clear  
Wind Chill: 18°   Ceiling: Unl
Heat Index: 18°   Visibility: 10mi
Dew Point: 10°   Wind: 0mph
Humidity: 73%   Direction: NA
Pressure: 30.52"   Gusts: NA
Location:  37.75°N, 78.06°W
Report Text: KLKU 220855Z AUTO 00000KT 10SM CLR M08/M12 A3052 RMK AO2
Loading
Personal Weather Stations






























Interactive Weather Map New forecast layout! Learn more

10-Day Weather Forecast

Advertisements
Track Severe Weather on mobile